Eastern Wv Regional Shepherd Field
KMRB : now visible

Aeroporto :











RITROVATECI SU...

 
LOGIN :

Iscrizione | Disclaimer

   EN    FR    IT 

 









Sommario :    VFR   VFR Marginale   IFR   IFR Intensivo   IFR Molto Intensivo
Visibilità : 
Base nubi : 
>= 8 km
>= 3000ft
5 / 8 km
1000 / 3000 ft
1500m / 5 km
500 / 1000 ft
800 / 1500m
200 / 500 ft
< 800m
< 200 ft
Simboli :   Temporali  Nebbia  Neve Forte  Precipitazioni Forti  Vento > 20 kt







- Altitudine del aeroporto : 565 ft


KMRB - Eastern Wv Regional Shepherd Field

ULTIMO METAR :
  • 190153Z 00000KT 10SM CLR 16/08 A3024 RMK AO2 SLP236 T01560078

METARs OBSOLETI :
  • 190053Z 07003KT 10SM CLR 17/08 A3022 RMK AO2 SLP232 T01720078
  • 182353Z 08005KT 10SM CLR 19/08 A3020 RMK AO2 SLP226 T01890078 10256 20189 53009

TAF KMRB
Valido dal 19 a 00 ore il 20 a 00 ore UTC


182326Z 1900/1924 07005KT P6SM FEW250
FM190200 VRB03KT P6SM FEW250
FM191500 11005KT P6SM FEW250
FM192300 VRB03KT P6SM FEW250
Nessun NOTAM noto per questo aeroporto.



MetMap, La meteo Aeronautica in un colpo d'occhio ! - Copyright ORBIFLY Dicembre 2007 - Disclaimer

ORBIFLY MET'MAP TEAM :

Programmazione e sviluppo : Alexandra Zaïnal
Concezione e sviluppo : Baudouin d'Aumeries
Co-Programmazione e sviluppo : Marc-Olivier Méhu
Supporto tecnico e logistico : Manuel Goepfert
Aiuto per la traduzione : Arnaldo La Scala

Contatto : metmap@orbifly.com




FONTI E CREDITI :

   NOAA       Earth
Advisory